Map

Track Data

SID SEASON NUMBER BASIN SUBBASIN NAME ISO_TIME NATURE LAT LON WMO_WIND WMO_PRES WMO_AGENCY TRACK_TYPE DIST2LAND LANDFALL IFLAG USA_AGENCY USA_ATCF_ID USA_LAT USA_LON USA_RECORD USA_STATUS USA_WIND USA_PRES USA_SSHS USA_R34_NE USA_R34_SE USA_R34_SW USA_R34_NW USA_R50_NE USA_R50_SE USA_R50_SW USA_R50_NW USA_R64_NE USA_R64_SE USA_R64_SW USA_R64_NW USA_POCI USA_ROCI USA_RMW USA_EYE TOKYO_LAT TOKYO_LON TOKYO_GRADE TOKYO_WIND TOKYO_PRES TOKYO_R50_DIR TOKYO_R50_LONG TOKYO_R50_SHORT TOKYO_R30_DIR TOKYO_R30_LONG TOKYO_R30_SHORT TOKYO_LAND CMA_LAT CMA_LON CMA_CAT CMA_WIND CMA_PRES HKO_LAT HKO_LON HKO_CAT HKO_WIND HKO_PRES NEWDELHI_LAT NEWDELHI_LON NEWDELHI_GRADE NEWDELHI_WIND NEWDELHI_PRES NEWDELHI_CI NEWDELHI_DP NEWDELHI_POCI REUNION_LAT REUNION_LON REUNION_TYPE REUNION_WIND REUNION_PRES REUNION_TNUM REUNION_CI REUNION_RMW REUNION_R34_NE REUNION_R34_SE REUNION_R34_SW REUNION_R34_NW REUNION_R50_NE REUNION_R50_SE REUNION_R50_SW REUNION_R50_NW REUNION_R64_NE REUNION_R64_SE REUNION_R64_SW REUNION_R64_NW BOM_LAT BOM_LON BOM_TYPE BOM_WIND BOM_PRES BOM_TNUM BOM_CI BOM_RMW BOM_R34_NE BOM_R34_SE BOM_R34_SW BOM_R34_NW BOM_R50_NE BOM_R50_SE BOM_R50_SW BOM_R50_NW BOM_R64_NE BOM_R64_SE BOM_R64_SW BOM_R64_NW BOM_ROCI BOM_POCI BOM_EYE BOM_POS_METHOD BOM_PRES_METHOD NADI_LAT NADI_LON NADI_CAT NADI_WIND NADI_PRES WELLINGTON_LAT WELLINGTON_LON WELLINGTON_WIND WELLINGTON_PRES DS824_LAT DS824_LON DS824_STAGE DS824_WIND DS824_PRES TD9636_LAT TD9636_LON TD9636_STAGE TD9636_WIND TD9636_PRES TD9635_LAT TD9635_LON TD9635_WIND TD9635_PRES TD9635_ROCI NEUMANN_LAT NEUMANN_LON NEUMANN_CLASS NEUMANN_WIND NEUMANN_PRES MLC_LAT MLC_LON MLC_CLASS MLC_WIND MLC_PRES USA_GUST BOM_GUST BOM_GUST_PER REUNION_GUST REUNION_GUST_PER USA_SEAHGT USA_SEARAD_NE USA_SEARAD_SE USA_SEARAD_SW USA_SEARAD_NW STORM_SPEED STORM_DIR
1967242N18253 1967 85 EP MM KATRINA 1967-08-30 00:00:00 TS 17.8000 -107.200 45 hurdat_epa main 291 291 O________OO___ hurdat_epa EP101967 17.8000 -107.200 TS 45 0 17.8000 -107.200 TC 45 17.8000 -107.200 2 8 296
1967242N18253 1967 85 EP MM KATRINA 1967-08-30 03:00:00 TS 17.9859 -107.596 main 307 307 P________PP___ EP101967 17.9777 -107.602 TS 45 0 17.9777 -107.602 TC 45 18.0189 -107.569 2 9 299
1967242N18253 1967 85 EP MM KATRINA 1967-08-30 06:00:00 TS 18.2120 -107.990 45 hurdat_epa main 329 329 O________OP___ hurdat_epa EP101967 18.2000 -108.000 TS 45 0 18.2000 -108.000 TC 45 18.2600 -107.951 2 9 305
1967242N18253 1967 85 EP MM KATRINA 1967-08-30 09:00:00 TS 18.5131 -108.386 main 347 342 P________PP___ EP101967 18.5049 -108.393 TS 45 0 18.5049 -108.393 TC 45 18.5461 -108.357 2 10 312
1967242N18253 1967 85 EP MM KATRINA 1967-08-30 12:00:00 TS 18.9000 -108.800 45 hurdat_epa main 365 365 O________OO___ hurdat_epa EP101967 18.9000 -108.800 TS 45 0 18.9000 -108.800 TC 45 18.9000 -108.800 2 12 316
1967242N18253 1967 85 EP MM KATRINA 1967-08-30 15:00:00 TS 19.3691 -109.245 main 382 335 P________PP___ EP101967 19.3774 -109.235 TS 45 0 19.3774 -109.235 TC 45 19.3358 -109.285 2 13 319
1967242N18253 1967 85 EP MM KATRINA 1967-08-30 18:00:00 TS 19.8866 -109.717 45 hurdat_epa main 335 280 O________OP___ hurdat_epa EP101967 19.9000 -109.700 TS 45 0 19.9000 -109.700 TC 45 19.8332 -109.786 2 14 318
1967242N18253 1967 85 EP MM KATRINA 1967-08-30 21:00:00 TS 20.3929 -110.226 main 280 234 P________PP___ EP101967 20.4001 -110.215 TS 60 0 20.4001 -110.215 TC 60 20.3640 -110.269 2 14 318
1967242N18253 1967 85 EP MM KATRINA 1967-08-31 00:00:00 TS 20.9000 -110.700 75 hurdat_epa main 234 202 O________OO___ hurdat_epa EP101967 20.9000 -110.700 HU 75 1 20.9000 -110.700 TC 75 20.9000 -110.700 4 13 321
1967242N18253 1967 85 EP MM KATRINA 1967-08-31 03:00:00 TS 21.3885 -111.098 main 202 181 P________PP___ EP101967 21.3999 -111.095 HU 75 1 21.3999 -111.095 TC 75 21.3429 -111.109 4 12 326
1967242N18253 1967 85 EP MM KATRINA 1967-08-31 06:00:00 TS 21.8789 -111.410 75 hurdat_epa main 182 178 O________OP___ hurdat_epa EP101967 21.9000 -111.400 HU 75 1 21.9000 -111.400 TC 75 21.7947 -111.451 4 11 330
1967242N18253 1967 85 EP MM KATRINA 1967-08-31 09:00:00 TS 22.3378 -111.690 main 186 150 P________PP___ EP101967 22.3474 -111.689 HU 75 1 22.3474 -111.689 TC 75 22.2992 -111.692 4 11 341
1967242N18253 1967 85 EP MM KATRINA 1967-08-31 12:00:00 TS 22.9000 -111.800 75 hurdat_epa main 150 67 O________OO___ hurdat_epa EP101967 22.9000 -111.800 HU 75 1 22.9000 -111.800 TC 75 22.9000 -111.800 4 14 3
1967242N18253 1967 85 EP MM KATRINA 1967-08-31 15:00:00 TS 23.7010 -111.614 main 67 0 P________PP___ EP101967 23.6977 -111.604 HU 75 1 23.6977 -111.604 TC 75 23.7144 -111.654 4 18 15
1967242N18253 1967 85 EP MM KATRINA 1967-08-31 18:00:00 TS 24.6031 -111.317 75 hurdat_epa main 0 0 O________OP___ hurdat_epa EP101967 24.6000 -111.300 HU 75 1 24.6000 -111.300 TC 75 24.6153 -111.387 4 19 15
1967242N18253 1967 85 EP MM KATRINA 1967-08-31 21:00:00 TS 25.5096 -111.080 main 0 0 P________PP___ EP101967 25.5099 -111.068 HU 75 1 25.5099 -111.068 TC 75 25.5083 -111.126 4 17 10
1967242N18253 1967 85 EP MM KATRINA 1967-09-01 00:00:00 TS 26.3000 -111.000 75 hurdat_epa main 39 29 O________OO___ hurdat_epa EP101967 26.3000 -111.000 HU 75 1 26.3000 -111.000 TC 75 26.3000 -111.000 4 13 355
1967242N18253 1967 85 EP MM KATRINA 1967-09-01 03:00:00 TS 26.8202 -111.209 main 38 37 P________PP___ EP101967 26.8100 -111.217 HU 75 1 26.8100 -111.217 TC 75 26.8609 -111.177 4 11 331
1967242N18253 1967 85 EP MM KATRINA 1967-09-01 06:00:00 TS 27.2225 -111.582 75 hurdat_epa main 41 37 O________OP___ hurdat_epa EP101967 27.2000 -111.600 HU 75 1 27.2000 -111.600 TC 75 27.3126 -111.510 4 11 321
1967242N18253 1967 85 EP MM KATRINA 1967-09-01 09:00:00 TS 27.6616 -111.976 main 40 37 P________PP___ EP101967 27.6500 -111.985 HU 75 1 27.6500 -111.985 TC 75 27.7079 -111.938 4 11 320
1967242N18253 1967 85 EP MM KATRINA 1967-09-01 12:00:00 TS 28.1000 -112.400 75 hurdat_epa main 39 9 O________OO___ hurdat_epa EP101967 28.1000 -112.400 HU 75 1 28.1000 -112.400 TC 75 28.1000 -112.400 4 12 320
1967242N18253 1967 85 EP MM KATRINA 1967-09-01 15:00:00 TS 28.5476 -112.805 main 11 11 P________PP___ EP101967 28.5423 -112.793 HU 75 1 28.5423 -112.793 TC 75 28.5685 -112.851 4 12 321
1967242N18253 1967 85 EP MM KATRINA 1967-09-01 18:00:00 TS 29.0087 -113.223 75 hurdat_epa main 24 9 O________OP___ hurdat_epa EP101967 29.0000 -113.200 HU 75 1 29.0000 -113.200 TC 75 29.0436 -113.316 4 12 321
1967242N18253 1967 85 EP MM KATRINA 1967-09-01 21:00:00 TS 29.5045 -113.687 main 14 14 P________PP___ EP101967 29.5002 -113.672 HU 75 1 29.5002 -113.672 TC 75 29.5218 -113.748 4 13 322
1967242N18253 1967 85 EP MM KATRINA 1967-09-02 00:00:00 TS 30.0000 -114.100 75 hurdat_epa main 34 22 O________OO___ hurdat_epa EP101967 30.0000 -114.100 HU 75 1 30.0000 -114.100 TC 75 30.0000 -114.100 4 11 327
1967242N18253 1967 85 EP MM KATRINA 1967-09-02 03:00:00 TS 30.4552 -114.402 main 19 9 P________PP___ EP101967 30.4499 -114.418 HU 75 1 30.4499 -114.418 TC 75 30.4765 -114.338 4 10 335
1967242N18253 1967 85 EP MM KATRINA 1967-09-02 06:00:00 TS 30.9081 -114.581 75 hurdat_epa main 9 9 O________OP___ hurdat_epa EP101967 30.9000 -114.600 HU 75 1 30.9000 -114.600 TC 75 30.9516 -114.479 4 10 345
1967242N18253 1967 85 EP MM KATRINA 1967-09-02 09:00:00 TS 31.4091 -114.708 main 18 0 P________PP___ EP101967 31.4069 -114.727 HU 60 0 31.4069 -114.727 TC 70 31.4259 -114.556 4 10 0
1967242N18253 1967 85 EP MM KATRINA 1967-09-02 12:00:00 TS 31.9000 -114.600 45 hurdat_epa main 0 0 O________OO___ hurdat_epa EP101967 31.9000 -114.600 TS 45 0 31.9000 -114.600 TC 65 31.9000 -114.600 2 10 25
1967242N18253 1967 85 EP MM KATRINA 1967-09-02 15:00:00 TS 32.3359 -114.195 main 0 0 P________P____ EP101967 32.3359 -114.195 TS 35 0 32.3359 -114.195 TC 47 2 13 52
1967242N18253 1967 85 EP MM KATRINA 1967-09-02 18:00:00 TS 32.7000 -113.400 25 hurdat_epa main 0 0 O________O____ hurdat_epa EP101967 32.7000 -113.400 TD 25 -1 32.7000 -113.400 TC 30 2 18 69
1967242N18253 1967 85 EP MM KATRINA 1967-09-02 21:00:00 TS 32.9794 -112.211 main 0 0 P________P____ EP101967 32.9794 -112.211 TD 22 -1 32.9794 -112.211 TC 27 2 22 77
1967242N18253 1967 85 EP MM KATRINA 1967-09-03 00:00:00 DS 33.2000 -110.800 20 hurdat_epa main 0 O________O____ hurdat_epa EP101967 33.2000 -110.800 LO 20 -3 33.2000 -110.800 25 24 79

About IBTrACS Database

This database is a web-friendly format of International Best Track Archive for Climate Stewardship (IBTrACS), a global best track data archive curated by NOAA dating back to 1842.

Updated: 2021-12-08